Time;durP1;ratioP1;P1;durP2;ratioP2;P2;SDS_P1;SDS_P2;PMS_P1;PMS_P2;Temp;Humidity;BMP_temperature;BMP_pressure;BME280_temperature;BME280_humidity;BME280_pressure;Samples;Min_cycle;Max_cycle;Signal;HPM_P1;HPM_P2
2022/08/20 00:00:28;;;;;;;2.80;1.30;;;;;;;;;;5018515;28;20530;-51
2022/08/20 00:03:02;;;;;;;2.67;1.40;;;;;;;;;;4998409;28;21358;-53
2022/08/20 00:05:30;;;;;;;2.37;1.57;;;;;;;;;;5014655;28;20532;-51
2022/08/20 00:08:00;;;;;;;4.27;2.03;;;;;;;;;;4997436;28;21053;-52
2022/08/20 00:10:26;;;;;;;5.13;1.67;;;;;;;;;;5018126;28;20478;-51
2022/08/20 00:13:04;;;;;;;1.90;1.33;;;;;;;;;;5008165;28;20473;-52
2022/08/20 00:15:31;;;;;;;2.90;1.70;;;;;;;;;;5016866;28;20439;-53
2022/08/20 00:18:02;;;;;;;1.80;1.30;;;;;;;;;;5001675;28;20454;-53
2022/08/20 00:20:28;;;;;;;2.87;1.60;;;;;;;;;;4996258;28;20443;-54
2022/08/20 00:23:09;;;;;;;2.20;1.80;;;;;;;;;;4981680;28;20439;-54
2022/08/20 00:25:42;;;;;;;2.27;1.87;;;;;;;;;;5015052;28;21039;-52
2022/08/20 00:28:10;;;;;;;2.37;1.40;;;;;;;;;;5011907;28;20577;-52
2022/08/20 00:30:38;;;;;;;2.40;1.50;;;;;;;;;;4999382;28;23497;-53
2022/08/20 00:33:05;;;;;;;2.40;1.90;;;;;;;;;;5012576;28;20434;-52
2022/08/20 00:35:31;;;;;;;2.50;1.53;;;;;;;;;;5003521;28;20491;-53
2022/08/20 00:38:01;;;;;;;2.10;1.67;;;;;;;;;;5001130;28;21389;-53
2022/08/20 00:40:29;;;;;;;1.93;1.30;;;;;;;;;;5019490;28;20972;-52
2022/08/20 00:42:57;;;;;;;2.40;1.80;;;;;;;;;;4993977;28;21426;-52
2022/08/20 00:45:23;;;;;;;2.00;1.60;;;;;;;;;;5001206;28;20474;-53
2022/08/20 00:48:01;;;;;;;2.17;1.80;;;;;;;;;;5010424;28;20450;-53
2022/08/20 00:50:31;;;;;;;1.70;1.20;;;;;;;;;;5017377;28;20466;-53
2022/08/20 00:53:01;;;;;;;1.80;1.50;;;;;;;;;;4979684;28;20486;-52
2022/08/20 00:55:27;;;;;;;2.60;1.80;;;;;;;;;;4999568;28;20462;-53
2022/08/20 00:58:12;;;;;;;6.30;1.53;;;;;;;;;;5013454;28;20526;-53
2022/08/20 01:00:44;;;;;;;2.20;1.47;;;;;;;;;;4998096;28;20954;-53
2022/08/20 01:03:10;;;;;;;2.00;1.50;;;;;;;;;;5001407;28;20435;-53
2022/08/20 01:05:37;;;;;;;2.03;1.80;;;;;;;;;;5019505;28;20505;-52
2022/08/20 01:08:03;;;;;;;1.80;1.50;;;;;;;;;;5017081;28;20501;-53
2022/08/20 01:10:33;;;;;;;2.20;1.40;;;;;;;;;;4996598;28;20541;-53
2022/08/20 01:12:59;;;;;;;2.00;1.53;;;;;;;;;;5016807;28;20550;-53
2022/08/20 01:15:26;;;;;;;2.57;1.63;;;;;;;;;;5013399;28;20474;-53
2022/08/20 01:17:56;;;;;;;2.00;1.43;;;;;;;;;;5013852;28;20532;-52
2022/08/20 01:20:24;;;;;;;1.80;1.50;;;;;;;;;;4982180;28;20857;-53
2022/08/20 01:26:02;;;;;;;1.97;1.60;;;;;;;;;;5003327;28;21273;-53
2022/08/20 01:28:39;;;;;;;2.67;1.70;;;;;;;;;;5015932;28;20442;-53
2022/08/20 01:31:06;;;;;;;2.23;1.50;;;;;;;;;;4978693;28;20464;-53
2022/08/20 01:33:56;;;;;;;1.70;1.60;;;;;;;;;;5006085;28;20435;-54
2022/08/20 01:36:29;;;;;;;2.33;1.40;;;;;;;;;;5011205;28;20430;-53
2022/08/20 01:38:55;;;;;;;1.40;1.27;;;;;;;;;;5004972;28;20435;-53
2022/08/20 01:41:21;;;;;;;1.80;1.60;;;;;;;;;;5007017;28;21601;-53
2022/08/20 01:43:55;;;;;;;3.30;2.03;;;;;;;;;;5011446;28;20460;-53
2022/08/20 01:46:35;;;;;;;2.13;1.53;;;;;;;;;;5015159;28;20494;-52
2022/08/20 01:49:06;;;;;;;1.97;1.77;;;;;;;;;;5005908;28;20439;-52
2022/08/20 01:51:32;;;;;;;1.83;1.60;;;;;;;;;;4990456;28;20447;-53
2022/08/20 01:54:01;;;;;;;2.47;1.77;;;;;;;;;;5011369;28;20448;-52
2022/08/20 01:56:28;;;;;;;3.53;1.67;;;;;;;;;;5010616;28;20565;-52
2022/08/20 01:58:54;;;;;;;2.43;1.73;;;;;;;;;;4978710;28;20436;-52
2022/08/20 02:01:25;;;;;;;2.40;1.63;;;;;;;;;;5013816;28;20527;-52
2022/08/20 02:03:58;;;;;;;2.83;1.67;;;;;;;;;;4991215;28;20898;-53
2022/08/20 02:06:25;;;;;;;1.60;1.33;;;;;;;;;;5016836;28;20443;-52
2022/08/20 02:08:55;;;;;;;2.40;1.77;;;;;;;;;;5013940;28;20442;-53
2022/08/20 02:11:21;;;;;;;2.47;1.80;;;;;;;;;;4996538;28;20439;-51
2022/08/20 02:13:48;;;;;;;2.80;1.87;;;;;;;;;;5016155;28;20458;-51
2022/08/20 02:16:14;;;;;;;2.33;1.77;;;;;;;;;;4992668;28;20874;-51
2022/08/20 02:18:40;;;;;;;2.90;1.80;;;;;;;;;;5017959;28;20462;-52
2022/08/20 02:21:06;;;;;;;2.20;1.90;;;;;;;;;;4991568;28;20467;-52
2022/08/20 02:23:32;;;;;;;1.63;1.30;;;;;;;;;;5018328;28;20427;-53
2022/08/20 02:25:58;;;;;;;1.93;1.50;;;;;;;;;;5006317;28;20467;-52
2022/08/20 02:28:26;;;;;;;3.60;1.90;;;;;;;;;;4994512;28;20195;-52
2022/08/20 02:30:54;;;;;;;1.97;1.50;;;;;;;;;;4996137;28;20466;-52
2022/08/20 02:33:20;;;;;;;2.37;2.17;;;;;;;;;;5014656;28;20520;-51
2022/08/20 02:35:46;;;;;;;2.30;2.10;;;;;;;;;;4985069;28;21029;-52
2022/08/20 02:38:14;;;;;;;2.87;1.87;;;;;;;;;;5016257;28;20965;-51
2022/08/20 02:40:40;;;;;;;1.90;1.53;;;;;;;;;;5006562;28;20942;-52
2022/08/20 02:43:06;;;;;;;2.13;1.73;;;;;;;;;;5018438;28;20435;-51
2022/08/20 02:45:42;;;;;;;2.00;1.60;;;;;;;;;;4997271;28;21240;-52
2022/08/20 02:48:10;;;;;;;2.20;1.70;;;;;;;;;;5019705;28;20430;-51
2022/08/20 02:50:38;;;;;;;2.07;1.60;;;;;;;;;;5005727;28;20436;-52
2022/08/20 02:53:04;;;;;;;4.53;2.10;;;;;;;;;;5005604;28;20443;-53
2022/08/20 02:55:45;;;;;;;2.43;2.23;;;;;;;;;;5010260;28;20518;-53
2022/08/20 02:58:13;;;;;;;3.20;1.83;;;;;;;;;;4997155;28;20818;-53
2022/08/20 03:00:39;;;;;;;2.37;2.17;;;;;;;;;;4973462;28;20977;-53
2022/08/20 03:03:06;;;;;;;2.50;2.00;;;;;;;;;;4970676;28;20446;-53
2022/08/20 03:05:33;;;;;;;2.77;2.37;;;;;;;;;;5019583;28;20571;-54
2022/08/20 03:07:59;;;;;;;2.70;2.13;;;;;;;;;;4975226;28;20836;-53
2022/08/20 03:10:26;;;;;;;2.37;2.17;;;;;;;;;;5021343;28;20427;-54
2022/08/20 03:12:52;;;;;;;4.37;2.07;;;;;;;;;;4999282;28;20446;-52
2022/08/20 03:15:19;;;;;;;2.77;2.57;;;;;;;;;;5019430;28;22078;-53
2022/08/20 03:17:45;;;;;;;2.60;2.20;;;;;;;;;;4989202;28;20512;-53
2022/08/20 03:20:11;;;;;;;2.50;2.30;;;;;;;;;;5021182;28;20435;-52
2022/08/20 03:22:37;;;;;;;2.70;2.50;;;;;;;;;;4995936;28;20435;-53
2022/08/20 03:25:03;;;;;;;2.37;2.17;;;;;;;;;;5000258;28;20475;-53
2022/08/20 03:27:29;;;;;;;3.00;2.70;;;;;;;;;;4999548;28;21114;-52
2022/08/20 03:29:55;;;;;;;2.53;2.33;;;;;;;;;;5015959;28;20438;-53
2022/08/20 03:32:27;;;;;;;3.27;2.97;;;;;;;;;;4996608;28;20458;-53
2022/08/20 03:34:55;;;;;;;3.43;3.00;;;;;;;;;;5016374;28;20454;-53
2022/08/20 03:37:28;;;;;;;2.97;2.67;;;;;;;;;;4979270;28;20427;-53
2022/08/20 03:39:54;;;;;;;3.30;2.33;;;;;;;;;;4992605;28;20440;-54
2022/08/20 03:42:21;;;;;;;3.20;2.90;;;;;;;;;;4989664;28;20440;-53
2022/08/20 03:44:47;;;;;;;2.97;2.63;;;;;;;;;;5019201;28;20471;-52
2022/08/20 03:47:13;;;;;;;3.20;2.90;;;;;;;;;;4986475;28;20197;-55
2022/08/20 03:49:39;;;;;;;3.10;2.80;;;;;;;;;;5012976;28;20457;-52
2022/08/20 03:52:05;;;;;;;2.93;2.73;;;;;;;;;;4991715;28;20449;-52
2022/08/20 03:54:31;;;;;;;3.60;3.30;;;;;;;;;;4986538;28;20538;-52
2022/08/20 03:56:58;;;;;;;3.60;3.30;;;;;;;;;;4989393;28;20433;-51
2022/08/20 03:59:23;;;;;;;3.03;2.73;;;;;;;;;;5015015;28;20463;-52
2022/08/20 04:01:51;;;;;;;3.60;3.30;;;;;;;;;;5015436;28;20443;-51
2022/08/20 04:04:17;;;;;;;3.00;2.80;;;;;;;;;;4976868;28;20262;-52
2022/08/20 04:06:43;;;;;;;3.60;3.30;;;;;;;;;;5014862;28;20442;-52
2022/08/20 04:09:09;;;;;;;5.33;2.90;;;;;;;;;;4990432;28;20204;-51
2022/08/20 04:11:36;;;;;;;5.50;3.67;;;;;;;;;;4966025;28;20474;-52
2022/08/20 04:14:02;;;;;;;4.00;3.60;;;;;;;;;;5001204;28;20440;-52
2022/08/20 04:16:28;;;;;;;3.50;3.00;;;;;;;;;;5005317;28;20503;-52
2022/08/20 04:18:54;;;;;;;3.20;2.90;;;;;;;;;;5019871;28;20176;-52
2022/08/20 04:21:20;;;;;;;4.20;3.80;;;;;;;;;;4992940;28;20440;-52
2022/08/20 04:23:46;;;;;;;7.63;3.90;;;;;;;;;;5014800;28;20185;-53
2022/08/20 04:26:12;;;;;;;4.40;3.00;;;;;;;;;;5015503;28;20469;-53
2022/08/20 04:28:38;;;;;;;4.00;3.60;;;;;;;;;;5021238;28;20181;-53
2022/08/20 04:31:04;;;;;;;3.70;3.40;;;;;;;;;;5028289;28;20450;-53
2022/08/20 04:33:30;;;;;;;3.90;3.60;;;;;;;;;;5027068;28;20489;-54
2022/08/20 04:35:59;;;;;;;8.57;4.10;;;;;;;;;;5030766;28;20514;-53
2022/08/20 04:38:25;;;;;;;5.63;3.33;;;;;;;;;;5026859;28;20435;-54
2022/08/20 04:40:57;;;;;;;6.80;4.10;;;;;;;;;;5020864;28;20423;-54
2022/08/20 04:43:32;;;;;;;4.40;4.00;;;;;;;;;;4984168;28;20445;-53
2022/08/20 04:46:00;;;;;;;4.43;3.50;;;;;;;;;;5024014;28;20876;-53
2022/08/20 04:48:27;;;;;;;4.10;3.70;;;;;;;;;;5026694;28;20556;-52
2022/08/20 04:50:53;;;;;;;4.30;3.30;;;;;;;;;;5025389;28;20954;-55
2022/08/20 04:53:20;;;;;;;3.53;3.23;;;;;;;;;;4987096;28;20460;-55
2022/08/20 04:55:46;;;;;;;3.77;3.47;;;;;;;;;;5024348;28;20435;-54
2022/08/20 04:58:17;;;;;;;4.10;3.73;;;;;;;;;;5003255;28;20453;-53
2022/08/20 05:00:45;;;;;;;3.93;3.53;;;;;;;;;;5025589;28;20835;-54
2022/08/20 05:03:11;;;;;;;4.40;4.00;;;;;;;;;;5003132;28;20431;-54
2022/08/20 05:05:37;;;;;;;3.93;3.53;;;;;;;;;;5024529;28;20471;-54
2022/08/20 05:08:03;;;;;;;3.70;3.20;;;;;;;;;;5026502;28;20454;-53
2022/08/20 05:10:29;;;;;;;3.93;3.57;;;;;;;;;;5027648;28;20439;-54
2022/08/20 05:12:55;;;;;;;4.27;3.83;;;;;;;;;;4984766;28;21374;-53
2022/08/20 05:15:23;;;;;;;4.03;3.73;;;;;;;;;;5022089;28;20521;-54
2022/08/20 05:17:53;;;;;;;3.40;2.87;;;;;;;;;;5026908;28;21003;-58
2022/08/20 05:20:19;;;;;;;6.10;5.00;;;;;;;;;;5020670;28;20431;-53
2022/08/20 05:22:45;;;;;;;3.83;3.53;;;;;;;;;;5006489;28;20466;-53
2022/08/20 05:25:11;;;;;;;4.13;3.83;;;;;;;;;;5026276;28;20477;-54
2022/08/20 05:27:38;;;;;;;5.50;4.43;;;;;;;;;;5022675;28;20954;-53
2022/08/20 05:30:08;;;;;;;3.80;3.50;;;;;;;;;;5027376;28;20435;-53
2022/08/20 05:32:35;;;;;;;4.50;4.10;;;;;;;;;;5006441;28;20427;-54
2022/08/20 05:35:01;;;;;;;4.80;4.20;;;;;;;;;;5031439;28;20431;-53
2022/08/20 05:37:28;;;;;;;4.37;3.97;;;;;;;;;;5021886;28;20505;-54
2022/08/20 05:39:54;;;;;;;5.23;4.60;;;;;;;;;;5024978;28;20451;-54
2022/08/20 05:42:20;;;;;;;3.77;3.47;;;;;;;;;;5004117;28;20441;-53
2022/08/20 05:44:46;;;;;;;4.00;3.70;;;;;;;;;;5026373;28;20521;-53
2022/08/20 05:47:12;;;;;;;4.13;3.73;;;;;;;;;;4982715;28;20451;-53
2022/08/20 05:49:38;;;;;;;4.20;3.90;;;;;;;;;;5028172;28;20439;-52
2022/08/20 05:52:04;;;;;;;5.17;4.67;;;;;;;;;;5001689;28;20445;-52
2022/08/20 05:54:31;;;;;;;4.53;3.73;;;;;;;;;;5029591;28;20443;-52
2022/08/20 05:56:57;;;;;;;4.80;4.40;;;;;;;;;;5016764;28;20442;-52
2022/08/20 05:59:23;;;;;;;4.60;4.20;;;;;;;;;;5011012;28;20461;-53
2022/08/20 06:01:49;;;;;;;4.33;3.93;;;;;;;;;;5017822;28;20462;-53
2022/08/20 06:04:25;;;;;;;3.97;3.67;;;;;;;;;;5024674;28;20478;-53
2022/08/20 06:06:55;;;;;;;4.10;3.70;;;;;;;;;;5000902;28;21125;-52
2022/08/20 06:09:21;;;;;;;4.07;3.70;;;;;;;;;;5019882;28;20434;-53
2022/08/20 06:11:47;;;;;;;3.80;3.50;;;;;;;;;;5003317;28;20435;-52
2022/08/20 06:14:15;;;;;;;4.17;3.73;;;;;;;;;;5025782;28;20427;-53
2022/08/20 06:16:41;;;;;;;3.60;3.30;;;;;;;;;;5023584;28;20218;-53
2022/08/20 06:19:07;;;;;;;5.37;4.07;;;;;;;;;;5028255;28;20463;-53
2022/08/20 06:21:33;;;;;;;4.40;4.00;;;;;;;;;;4984881;28;20193;-52
2022/08/20 06:23:59;;;;;;;3.83;3.53;;;;;;;;;;5027344;28;20208;-53
2022/08/20 06:26:25;;;;;;;4.73;3.83;;;;;;;;;;5025960;28;20462;-53
2022/08/20 06:28:51;;;;;;;4.20;3.80;;;;;;;;;;5020605;28;20513;-53
2022/08/20 06:31:17;;;;;;;4.30;3.90;;;;;;;;;;5010088;28;21429;-53
2022/08/20 06:33:43;;;;;;;4.97;3.67;;;;;;;;;;5019356;28;20188;-53
2022/08/20 06:36:09;;;;;;;5.90;4.17;;;;;;;;;;5016481;28;20461;-53
2022/08/20 06:38:35;;;;;;;4.90;3.80;;;;;;;;;;4998960;28;20808;-53
2022/08/20 06:41:01;;;;;;;4.17;3.77;;;;;;;;;;5020218;28;20443;-53
2022/08/20 06:43:27;;;;;;;3.97;3.60;;;;;;;;;;5025919;28;20295;-53
2022/08/20 06:45:56;;;;;;;3.30;3.00;;;;;;;;;;5017546;28;20563;-53
2022/08/20 06:48:22;;;;;;;3.73;3.33;;;;;;;;;;5015370;28;20176;-53
2022/08/20 06:50:48;;;;;;;4.50;4.10;;;;;;;;;;5021119;28;20453;-54
2022/08/20 06:53:15;;;;;;;4.17;3.77;;;;;;;;;;4987207;28;20852;-54
2022/08/20 06:55:42;;;;;;;4.53;4.13;;;;;;;;;;5024347;28;20523;-53
2022/08/20 06:58:09;;;;;;;3.50;3.20;;;;;;;;;;5020462;28;20590;-53
2022/08/20 07:00:36;;;;;;;3.97;3.57;;;;;;;;;;5022650;28;20454;-54
2022/08/20 07:03:02;;;;;;;4.73;3.37;;;;;;;;;;5004253;28;20618;-54
2022/08/20 07:05:32;;;;;;;4.53;4.00;;;;;;;;;;5007855;28;20470;-53
2022/08/20 07:07:59;;;;;;;4.50;4.10;;;;;;;;;;4983737;28;20870;-54
2022/08/20 07:10:25;;;;;;;4.37;3.97;;;;;;;;;;5026251;28;20522;-54
2022/08/20 07:12:51;;;;;;;8.20;4.43;;;;;;;;;;5023278;28;21026;-53
2022/08/20 07:15:18;;;;;;;4.80;4.33;;;;;;;;;;5008488;28;20481;-54
2022/08/20 07:17:48;;;;;;;4.80;3.70;;;;;;;;;;5021542;28;20415;-54
2022/08/20 07:20:14;;;;;;;3.70;3.40;;;;;;;;;;5025969;28;20512;-54
2022/08/20 07:22:41;;;;;;;4.20;3.80;;;;;;;;;;4982116;28;20967;-53
2022/08/20 07:25:07;;;;;;;4.10;3.70;;;;;;;;;;5022821;28;20481;-52
2022/08/20 07:27:33;;;;;;;4.70;4.30;;;;;;;;;;5022621;28;20431;-53
2022/08/20 07:32:44;;;;;;;4.47;3.77;;;;;;;;;;5014055;28;20435;-52
2022/08/20 07:35:11;;;;;;;4.43;4.03;;;;;;;;;;5006295;28;21147;-53
2022/08/20 07:37:37;;;;;;;4.60;4.20;;;;;;;;;;5023827;28;20937;-53
2022/08/20 07:40:04;;;;;;;4.27;3.80;;;;;;;;;;5023356;28;21278;-53
2022/08/20 07:42:30;;;;;;;3.43;3.13;;;;;;;;;;5002768;28;20450;-53
2022/08/20 07:44:56;;;;;;;4.60;3.40;;;;;;;;;;5025248;28;20566;-54
2022/08/20 07:47:22;;;;;;;3.60;3.30;;;;;;;;;;5022220;28;20506;-54
2022/08/20 07:49:48;;;;;;;4.40;3.43;;;;;;;;;;5007395;28;20475;-55
2022/08/20 07:52:14;;;;;;;3.40;3.10;;;;;;;;;;5021183;28;20184;-55
2022/08/20 07:54:41;;;;;;;3.27;2.97;;;;;;;;;;5024905;28;20168;-54
2022/08/20 07:57:10;;;;;;;4.73;3.60;;;;;;;;;;4981028;28;20435;-53
2022/08/20 07:59:37;;;;;;;3.77;3.20;;;;;;;;;;5006685;28;20439;-52
2022/08/20 08:02:03;;;;;;;4.57;3.43;;;;;;;;;;5004007;28;20451;-55
2022/08/20 08:04:29;;;;;;;3.27;2.93;;;;;;;;;;5029395;28;20483;-53
2022/08/20 08:06:58;;;;;;;3.57;3.27;;;;;;;;;;5026129;28;20438;-53
2022/08/20 08:09:24;;;;;;;3.83;3.40;;;;;;;;;;5017618;28;20191;-53
2022/08/20 08:11:51;;;;;;;3.47;3.17;;;;;;;;;;5003030;28;20430;-53
2022/08/20 08:14:20;;;;;;;3.37;3.07;;;;;;;;;;5030057;28;20479;-53
2022/08/20 08:16:46;;;;;;;3.50;3.20;;;;;;;;;;4991626;28;20446;-52
2022/08/20 08:19:13;;;;;;;3.87;3.50;;;;;;;;;;5031238;28;20442;-53
2022/08/20 08:21:40;;;;;;;3.67;3.37;;;;;;;;;;5006514;28;20445;-53
2022/08/20 08:24:06;;;;;;;3.40;3.10;;;;;;;;;;5015594;28;20443;-53
2022/08/20 08:26:32;;;;;;;3.50;2.97;;;;;;;;;;4988484;28;20455;-53
2022/08/20 08:28:57;;;;;;;3.80;2.60;;;;;;;;;;5011409;28;20487;-53
2022/08/20 08:31:24;;;;;;;6.00;3.70;;;;;;;;;;5025887;28;20430;-53
2022/08/20 08:33:50;;;;;;;3.40;2.93;;;;;;;;;;5029505;28;20454;-53
2022/08/20 08:36:16;;;;;;;4.27;2.77;;;;;;;;;;5016717;28;20419;-54
2022/08/20 08:38:43;;;;;;;5.43;3.47;;;;;;;;;;5027098;28;20438;-53
2022/08/20 08:41:15;;;;;;;3.70;3.00;;;;;;;;;;5010676;28;22615;-55
2022/08/20 08:43:42;;;;;;;3.40;3.10;;;;;;;;;;5023390;28;20455;-54
2022/08/20 08:46:09;;;;;;;4.50;3.63;;;;;;;;;;5001921;28;20505;-54
2022/08/20 08:48:36;;;;;;;3.50;3.20;;;;;;;;;;4995057;28;20435;-54
2022/08/20 08:51:03;;;;;;;3.93;3.53;;;;;;;;;;5030225;28;20922;-54
2022/08/20 08:53:36;;;;;;;4.20;3.40;;;;;;;;;;4972101;28;21082;-54
2022/08/20 08:56:03;;;;;;;3.60;3.30;;;;;;;;;;5025514;28;20510;-54
2022/08/20 08:58:29;;;;;;;4.13;3.00;;;;;;;;;;4964118;28;20463;-54
2022/08/20 09:00:55;;;;;;;3.97;3.30;;;;;;;;;;5025001;28;20466;-54
2022/08/20 09:03:29;;;;;;;3.83;3.50;;;;;;;;;;5024870;28;20516;-53
2022/08/20 09:05:58;;;;;;;3.67;3.37;;;;;;;;;;5013667;28;20471;-53
2022/08/20 09:08:26;;;;;;;3.80;3.40;;;;;;;;;;5025249;28;21469;-54
2022/08/20 09:10:52;;;;;;;3.50;3.03;;;;;;;;;;5030092;28;20925;-53
2022/08/20 09:13:18;;;;;;;3.50;3.20;;;;;;;;;;5004856;28;20447;-53
2022/08/20 09:15:44;;;;;;;4.60;4.20;;;;;;;;;;5027174;28;20309;-54
2022/08/20 09:18:10;;;;;;;4.43;3.90;;;;;;;;;;5002764;28;20458;-54
2022/08/20 09:20:36;;;;;;;6.27;3.10;;;;;;;;;;5026254;28;20428;-54
2022/08/20 09:23:04;;;;;;;4.47;2.70;;;;;;;;;;5024930;28;20172;-54
2022/08/20 09:25:30;;;;;;;3.80;2.70;;;;;;;;;;5018903;28;20217;-54
2022/08/20 09:27:56;;;;;;;2.50;2.30;;;;;;;;;;4984513;28;20436;-55
2022/08/20 09:30:22;;;;;;;2.13;1.93;;;;;;;;;;5022453;28;20428;-54
2022/08/20 09:32:48;;;;;;;2.63;2.17;;;;;;;;;;5000484;28;20558;-53
2022/08/20 09:35:14;;;;;;;3.33;3.03;;;;;;;;;;5026553;28;20319;-54
2022/08/20 09:37:40;;;;;;;2.80;1.90;;;;;;;;;;5025772;28;20423;-54
2022/08/20 09:40:07;;;;;;;2.57;2.37;;;;;;;;;;5020494;28;20921;-54
2022/08/20 09:42:34;;;;;;;2.93;2.50;;;;;;;;;;5023224;28;20534;-55
2022/08/20 09:45:00;;;;;;;2.40;2.20;;;;;;;;;;5028757;28;20474;-52
2022/08/20 09:47:26;;;;;;;2.80;2.50;;;;;;;;;;5014401;28;21028;-53
2022/08/20 09:49:52;;;;;;;2.80;2.60;;;;;;;;;;5010888;28;20522;-54
2022/08/20 09:52:21;;;;;;;2.87;1.90;;;;;;;;;;4999232;28;20439;-54
2022/08/20 09:54:47;;;;;;;1.97;1.77;;;;;;;;;;5014466;28;20455;-54
2022/08/20 09:57:13;;;;;;;2.10;1.80;;;;;;;;;;4994080;28;20435;-54
2022/08/20 09:59:39;;;;;;;2.57;1.80;;;;;;;;;;5002194;28;20434;-54
2022/08/20 10:02:06;;;;;;;2.20;1.57;;;;;;;;;;5018187;28;20183;-54
2022/08/20 10:04:32;;;;;;;3.50;1.80;;;;;;;;;;4994066;28;20848;-54
2022/08/20 10:06:57;;;;;;;2.20;1.57;;;;;;;;;;5030340;28;20431;-54
2022/08/20 10:09:23;;;;;;;1.70;1.50;;;;;;;;;;5016745;28;20185;-54
2022/08/20 10:11:49;;;;;;;1.77;1.47;;;;;;;;;;5028454;28;20252;-54
2022/08/20 10:14:15;;;;;;;2.40;2.20;;;;;;;;;;5004698;28;20484;-53
2022/08/20 10:16:41;;;;;;;2.63;2.30;;;;;;;;;;5024992;28;20184;-53
2022/08/20 10:19:07;;;;;;;2.40;2.20;;;;;;;;;;5021437;28;20311;-53
2022/08/20 10:21:33;;;;;;;2.97;2.37;;;;;;;;;;5020190;28;20435;-55
2022/08/20 10:23:59;;;;;;;2.43;1.60;;;;;;;;;;4987536;28;20267;-55
2022/08/20 10:26:25;;;;;;;1.77;1.40;;;;;;;;;;5029616;28;20450;-55
2022/08/20 10:28:51;;;;;;;2.50;1.60;;;;;;;;;;5017556;28;20427;-55
2022/08/20 10:31:17;;;;;;;2.00;1.60;;;;;;;;;;5025944;28;20860;-55
2022/08/20 10:33:43;;;;;;;1.83;1.37;;;;;;;;;;4982582;28;20726;-55
2022/08/20 10:36:14;;;;;;;2.10;1.47;;;;;;;;;;5024312;28;20475;-55
2022/08/20 10:38:40;;;;;;;2.17;1.50;;;;;;;;;;5017913;28;20173;-55
2022/08/20 10:41:06;;;;;;;1.40;1.00;;;;;;;;;;5021333;28;20857;-54
2022/08/20 10:43:32;;;;;;;1.70;1.20;;;;;;;;;;5017372;28;20446;-54
2022/08/20 10:45:58;;;;;;;1.57;1.20;;;;;;;;;;5020401;28;20483;-55
2022/08/20 10:48:24;;;;;;;1.97;1.40;;;;;;;;;;5019531;28;20473;-54
2022/08/20 10:50:50;;;;;;;1.90;1.33;;;;;;;;;;5027994;28;20180;-55
2022/08/20 10:53:16;;;;;;;1.83;1.50;;;;;;;;;;5006501;28;21072;-53
2022/08/20 10:55:42;;;;;;;2.20;1.60;;;;;;;;;;5026446;28;20427;-54
2022/08/20 10:58:08;;;;;;;2.00;1.20;;;;;;;;;;5002955;28;20946;-54
2022/08/20 11:00:34;;;;;;;3.00;1.40;;;;;;;;;;5021876;28;20940;-54
2022/08/20 11:03:00;;;;;;;1.80;1.10;;;;;;;;;;5003983;28;20451;-55
2022/08/20 11:05:26;;;;;;;1.60;0.90;;;;;;;;;;5027370;28;20481;-54
2022/08/20 11:07:53;;;;;;;1.50;1.00;;;;;;;;;;4980195;28;21805;-54
2022/08/20 11:10:19;;;;;;;1.80;1.00;;;;;;;;;;5027420;28;20457;-54
2022/08/20 11:12:45;;;;;;;1.50;1.00;;;;;;;;;;4998222;28;20439;-54
2022/08/20 11:15:11;;;;;;;1.60;0.93;;;;;;;;;;5025581;28;20958;-54
2022/08/20 11:17:39;;;;;;;2.17;1.17;;;;;;;;;;5020511;28;20172;-54
2022/08/20 11:20:06;;;;;;;1.77;1.23;;;;;;;;;;5026475;28;20439;-55
2022/08/20 11:22:32;;;;;;;1.77;1.00;;;;;;;;;;5007053;28;20480;-54
2022/08/20 11:24:58;;;;;;;1.73;1.00;;;;;;;;;;5027577;28;21104;-56
2022/08/20 11:27:28;;;;;;;1.40;0.80;;;;;;;;;;5005456;28;20430;-55
2022/08/20 11:29:54;;;;;;;2.07;0.87;;;;;;;;;;5019939;28;20655;-55
2022/08/20 11:32:20;;;;;;;1.40;0.80;;;;;;;;;;5013543;28;20451;-55
2022/08/20 11:34:46;;;;;;;1.60;1.00;;;;;;;;;;5015542;28;20529;-55
2022/08/20 11:37:12;;;;;;;1.70;1.00;;;;;;;;;;5021310;28;20485;-55
2022/08/20 11:39:38;;;;;;;1.50;0.80;;;;;;;;;;5024751;28;20453;-54
2022/08/20 11:42:04;;;;;;;1.40;0.80;;;;;;;;;;5014958;28;20427;-55
2022/08/20 11:44:30;;;;;;;1.50;1.00;;;;;;;;;;4992052;28;20569;-54
2022/08/20 11:47:01;;;;;;;1.50;0.90;;;;;;;;;;5021679;28;20515;-56
2022/08/20 11:49:28;;;;;;;1.73;0.90;;;;;;;;;;5024350;28;20189;-54
2022/08/20 11:51:54;;;;;;;1.90;1.20;;;;;;;;;;5012416;28;20447;-54
2022/08/20 11:54:19;;;;;;;2.57;1.20;;;;;;;;;;4998865;28;20945;-54
2022/08/20 11:56:45;;;;;;;1.70;1.30;;;;;;;;;;5009534;28;20182;-54
2022/08/20 11:59:11;;;;;;;3.30;1.20;;;;;;;;;;5020253;28;20260;-54
2022/08/20 12:01:37;;;;;;;1.70;0.90;;;;;;;;;;5023185;28;20435;-55
2022/08/20 12:04:03;;;;;;;1.60;1.10;;;;;;;;;;5005717;28;20434;-54
2022/08/20 12:06:30;;;;;;;1.73;0.87;;;;;;;;;;5023342;28;20447;-54
2022/08/20 12:08:56;;;;;;;1.73;1.03;;;;;;;;;;5003450;28;20215;-54
2022/08/20 12:11:21;;;;;;;1.77;1.17;;;;;;;;;;5021700;28;20428;-55
2022/08/20 12:13:47;;;;;;;1.80;1.23;;;;;;;;;;5004194;28;20678;-54
2022/08/20 12:16:14;;;;;;;1.40;0.90;;;;;;;;;;5025486;28;20165;-55
2022/08/20 12:18:40;;;;;;;1.80;1.17;;;;;;;;;;4982474;28;20435;-54
2022/08/20 12:21:05;;;;;;;1.67;1.13;;;;;;;;;;5003033;28;20870;-54
2022/08/20 12:23:32;;;;;;;1.83;1.20;;;;;;;;;;5005079;28;20447;-56
2022/08/20 12:26:01;;;;;;;2.40;1.03;;;;;;;;;;5025098;28;20988;-56
2022/08/20 12:28:27;;;;;;;2.20;1.00;;;;;;;;;;5023002;28;20431;-55
2022/08/20 12:30:53;;;;;;;2.10;1.83;;;;;;;;;;5022882;28;20566;-55
2022/08/20 12:33:19;;;;;;;3.10;1.40;;;;;;;;;;5023516;28;20427;-55
2022/08/20 12:35:45;;;;;;;3.60;1.00;;;;;;;;;;5030291;28;20184;-55
2022/08/20 12:38:11;;;;;;;1.60;1.10;;;;;;;;;;4998907;28;20474;-53
2022/08/20 12:40:37;;;;;;;1.30;0.90;;;;;;;;;;5023335;28;20176;-54
2022/08/20 12:43:03;;;;;;;1.50;0.90;;;;;;;;;;4994916;28;20446;-53
2022/08/20 12:45:30;;;;;;;1.43;1.00;;;;;;;;;;5021295;28;20487;-54
2022/08/20 12:47:59;;;;;;;2.20;1.10;;;;;;;;;;5026501;28;20976;-55
2022/08/20 12:50:26;;;;;;;1.47;0.77;;;;;;;;;;5030682;28;20427;-52
2022/08/20 12:52:51;;;;;;;1.63;1.20;;;;;;;;;;4987320;28;20868;-54
2022/08/20 12:55:18;;;;;;;1.50;1.20;;;;;;;;;;5028558;28;20454;-54
2022/08/20 12:57:45;;;;;;;2.37;1.47;;;;;;;;;;5018490;28;20675;-55
2022/08/20 13:00:15;;;;;;;1.87;1.43;;;;;;;;;;5030133;28;20446;-55
2022/08/20 13:02:41;;;;;;;1.63;1.43;;;;;;;;;;4997950;28;20443;-55
2022/08/20 13:05:08;;;;;;;2.00;1.50;;;;;;;;;;5028018;28;21073;-55
2022/08/20 13:07:34;;;;;;;1.70;1.10;;;;;;;;;;5029319;28;20427;-55
2022/08/20 13:10:00;;;;;;;1.80;1.50;;;;;;;;;;5031049;28;20426;-54
2022/08/20 13:12:26;;;;;;;2.70;1.43;;;;;;;;;;5013544;28;20199;-55
2022/08/20 13:14:52;;;;;;;1.93;1.27;;;;;;;;;;5020669;28;20443;-54
2022/08/20 13:17:18;;;;;;;2.00;1.70;;;;;;;;;;5027858;28;20435;-54
2022/08/20 13:19:44;;;;;;;1.73;1.40;;;;;;;;;;5028144;28;20227;-54
2022/08/20 13:22:10;;;;;;;2.20;1.73;;;;;;;;;;4998079;28;20836;-55
2022/08/20 13:24:36;;;;;;;1.70;1.60;;;;;;;;;;4998652;28;20981;-53
2022/08/20 13:27:06;;;;;;;3.00;2.00;;;;;;;;;;5027553;28;20427;-54
2022/08/20 13:29:32;;;;;;;1.83;1.30;;;;;;;;;;5025034;28;20435;-54
2022/08/20 13:31:58;;;;;;;2.00;1.50;;;;;;;;;;5023616;28;20442;-55
2022/08/20 13:34:23;;;;;;;1.70;1.33;;;;;;;;;;5007410;28;20200;-54
2022/08/20 13:36:49;;;;;;;1.80;1.60;;;;;;;;;;5025443;28;20180;-55
2022/08/20 13:39:15;;;;;;;2.07;1.67;;;;;;;;;;5024656;28;20235;-54
2022/08/20 13:41:42;;;;;;;1.90;1.60;;;;;;;;;;5030365;28;20530;-54
2022/08/20 13:44:09;;;;;;;1.97;1.50;;;;;;;;;;5019548;28;20188;-54
2022/08/20 13:46:35;;;;;;;2.90;1.70;;;;;;;;;;5029563;28;20447;-54
2022/08/20 13:49:01;;;;;;;1.50;1.10;;;;;;;;;;5002956;28;20450;-55
2022/08/20 13:51:27;;;;;;;1.80;1.40;;;;;;;;;;5028231;28;20168;-54
2022/08/20 13:53:53;;;;;;;2.43;1.67;;;;;;;;;;4987278;28;20216;-55
2022/08/20 13:56:19;;;;;;;1.60;1.17;;;;;;;;;;5028944;28;20180;-55
2022/08/20 13:58:45;;;;;;;4.27;1.60;;;;;;;;;;4983526;28;20447;-54
2022/08/20 14:01:11;;;;;;;6.13;2.00;;;;;;;;;;5024700;28;20172;-54
2022/08/20 14:03:37;;;;;;;5.53;1.80;;;;;;;;;;5000191;28;21349;-54
2022/08/20 14:06:03;;;;;;;3.90;2.10;;;;;;;;;;5026141;28;20521;-55
2022/08/20 14:08:29;;;;;;;2.17;1.57;;;;;;;;;;5025034;28;20446;-54
2022/08/20 14:10:55;;;;;;;2.10;1.77;;;;;;;;;;5028666;28;20434;-54
2022/08/20 14:13:22;;;;;;;1.90;1.70;;;;;;;;;;5005246;28;20453;-54
2022/08/20 14:15:48;;;;;;;2.30;1.70;;;;;;;;;;5026569;28;20180;-54
2022/08/20 14:18:14;;;;;;;1.97;1.60;;;;;;;;;;5025250;28;21050;-54
2022/08/20 14:20:40;;;;;;;2.27;1.60;;;;;;;;;;5025572;28;20959;-54
2022/08/20 14:23:06;;;;;;;2.13;1.87;;;;;;;;;;5001089;28;20941;-55
2022/08/20 14:25:32;;;;;;;2.63;1.67;;;;;;;;;;5021085;28;20478;-54
2022/08/20 14:27:58;;;;;;;2.70;1.90;;;;;;;;;;4982900;28;21160;-55
2022/08/20 14:30:25;;;;;;;2.23;1.70;;;;;;;;;;5026863;28;20429;-54
2022/08/20 14:32:51;;;;;;;1.77;1.43;;;;;;;;;;4996311;28;20943;-55
2022/08/20 14:35:17;;;;;;;2.10;1.53;;;;;;;;;;5026969;28;20442;-54
2022/08/20 14:37:45;;;;;;;2.77;2.03;;;;;;;;;;5014852;28;21196;-54
2022/08/20 14:40:12;;;;;;;1.90;1.47;;;;;;;;;;5023171;28;20451;-54
2022/08/20 14:42:38;;;;;;;2.90;1.50;;;;;;;;;;4992802;28;21537;-55
2022/08/20 14:45:05;;;;;;;1.77;1.47;;;;;;;;;;5020711;28;20482;-53
2022/08/20 14:47:35;;;;;;;2.20;1.60;;;;;;;;;;5025158;28;20450;-54